createdAt,value
2022-10-21T00:00:53.985Z,14.65
2022-10-21T00:03:20.676Z,13.15
2022-10-21T00:05:47.382Z,13.90
2022-10-21T00:08:13.971Z,12.45
2022-10-21T00:10:40.378Z,13.40
2022-10-21T00:13:06.668Z,12.80
2022-10-21T00:15:32.881Z,13.52
2022-10-21T00:17:59.352Z,12.80
2022-10-21T00:20:25.568Z,12.68
2022-10-21T00:22:51.772Z,12.10
2022-10-21T00:25:18.058Z,11.43
2022-10-21T00:27:44.488Z,11.32
2022-10-21T00:30:11.388Z,13.00
2022-10-21T00:32:37.774Z,12.48
2022-10-21T00:35:04.574Z,12.80
2022-10-21T00:37:31.519Z,12.45
2022-10-21T00:39:58.211Z,12.52
2022-10-21T00:42:29.980Z,12.30
2022-10-21T00:45:05.253Z,11.32
2022-10-21T00:47:41.423Z,10.70
2022-10-21T00:50:17.525Z,11.40
2022-10-21T00:52:43.784Z,12.18
2022-10-21T00:55:10.068Z,11.50
2022-10-21T00:57:36.580Z,11.23
2022-10-21T01:00:05.577Z,11.75
2022-10-21T01:02:31.990Z,10.38
2022-10-21T01:05:00.778Z,10.85
2022-10-21T01:07:27.075Z,10.30
2022-10-21T01:09:53.279Z,10.73
2022-10-21T01:12:33.593Z,10.65
2022-10-21T01:15:05.318Z,10.18
2022-10-21T01:17:45.042Z,9.98
2022-10-21T01:20:11.870Z,10.48
2022-10-21T01:22:41.152Z,10.45
2022-10-21T01:25:22.266Z,9.82
2022-10-21T01:27:54.609Z,9.93
2022-10-21T01:30:29.712Z,9.43
2022-10-21T01:33:34.255Z,9.35
2022-10-21T01:36:19.100Z,8.77
2022-10-21T01:38:59.755Z,8.98
2022-10-21T01:41:30.562Z,9.27
2022-10-21T01:43:56.718Z,9.25
2022-10-21T01:46:25.915Z,8.77
2022-10-21T01:48:54.790Z,9.05
2022-10-21T01:51:22.230Z,8.20
2022-10-21T01:53:54.144Z,8.50
2022-10-21T01:56:20.783Z,8.27
2022-10-21T01:58:47.999Z,8.30
2022-10-21T02:01:15.861Z,8.38
2022-10-21T02:03:43.848Z,8.55
2022-10-21T02:06:10.390Z,8.02
2022-10-21T02:08:36.702Z,7.97
2022-10-21T02:11:05.854Z,7.90
2022-10-21T02:13:35.406Z,8.10
2022-10-21T02:16:03.502Z,7.28
2022-10-21T02:18:29.792Z,7.32
2022-10-21T02:20:57.032Z,8.50
2022-10-21T02:23:26.498Z,8.13
2022-10-21T02:25:52.881Z,8.35
2022-10-21T02:28:19.856Z,8.43
2022-10-21T02:30:55.275Z,7.63
2022-10-21T02:33:30.240Z,8.18
2022-10-21T02:35:56.467Z,9.10
2022-10-21T02:38:26.023Z,9.18
2022-10-21T02:40:55.336Z,10.27
2022-10-21T02:43:25.035Z,9.50
2022-10-21T02:45:54.006Z,9.10
2022-10-21T02:48:20.175Z,8.95
2022-10-21T02:50:46.420Z,8.75
2022-10-21T02:53:13.278Z,9.80
2022-10-21T02:55:39.508Z,9.57
2022-10-21T02:58:05.743Z,9.57
2022-10-21T03:00:32.962Z,9.80
2022-10-21T03:02:59.581Z,9.60
2022-10-21T03:05:25.969Z,8.65
2022-10-21T03:07:52.276Z,8.50
2022-10-21T03:10:18.510Z,8.38
2022-10-21T03:12:44.733Z,8.25
2022-10-21T03:15:10.933Z,8.00
2022-10-21T03:17:37.509Z,7.97
2022-10-21T03:20:04.152Z,8.38
2022-10-21T03:22:30.405Z,7.60
2022-10-21T03:24:56.600Z,7.55
2022-10-21T03:27:22.821Z,7.30
2022-10-21T03:29:49.051Z,7.60
2022-10-21T03:32:15.472Z,7.60
2022-10-21T03:34:41.689Z,6.93
2022-10-21T03:37:07.900Z,7.78
2022-10-21T03:39:34.107Z,7.20
2022-10-21T03:42:00.317Z,7.45
2022-10-21T03:44:26.559Z,7.53
2022-10-21T03:46:52.912Z,6.70
2022-10-21T03:49:21.273Z,7.25
2022-10-21T03:51:48.081Z,6.97
2022-10-21T03:54:14.396Z,6.63
2022-10-21T03:56:40.576Z,6.43
2022-10-21T03:59:06.811Z,6.70
2022-10-21T04:01:33.142Z,6.70
2022-10-21T04:03:59.412Z,6.57
2022-10-21T04:06:25.690Z,8.20
2022-10-21T04:08:52.397Z,6.90
2022-10-21T04:11:18.695Z,7.40
2022-10-21T04:13:44.891Z,6.57
2022-10-21T04:16:13.980Z,6.82
2022-10-21T04:18:40.352Z,6.38
2022-10-21T04:21:06.596Z,7.20
2022-10-21T04:23:32.786Z,6.35
2022-10-21T04:25:58.967Z,5.82
2022-10-21T04:28:25.220Z,6.65
2022-10-21T04:30:51.440Z,6.05
2022-10-21T04:33:17.727Z,6.20
2022-10-21T04:35:44.180Z,5.95
2022-10-21T04:38:10.674Z,6.05
2022-10-21T04:40:36.878Z,6.05
2022-10-21T04:43:03.158Z,5.88
2022-10-21T04:45:29.400Z,5.85
2022-10-21T04:47:55.615Z,6.25
2022-10-21T04:50:21.851Z,6.00
2022-10-21T04:52:48.077Z,5.53
2022-10-21T04:55:14.337Z,5.28
2022-10-21T04:57:40.610Z,5.35
2022-10-21T05:00:07.853Z,5.50
2022-10-21T05:02:34.298Z,6.35
2022-10-21T05:05:00.573Z,5.35
2022-10-21T05:07:26.782Z,5.57
2022-10-21T05:09:53.001Z,5.38
2022-10-21T05:12:19.190Z,5.30
2022-10-21T05:14:45.417Z,4.82
2022-10-21T05:17:11.732Z,4.97
2022-10-21T05:19:37.927Z,4.93
2022-10-21T05:22:04.140Z,5.35
2022-10-21T05:24:30.385Z,4.97
2022-10-21T05:26:56.607Z,5.15
2022-10-21T05:29:22.795Z,5.07
2022-10-21T05:31:49.052Z,4.45
2022-10-21T05:34:15.245Z,4.60
2022-10-21T05:36:41.444Z,5.43
2022-10-21T05:39:11.275Z,5.03
2022-10-21T05:41:38.326Z,4.57
2022-10-21T05:44:04.631Z,4.65
2022-10-21T05:46:30.873Z,4.80
2022-10-21T05:48:57.089Z,4.80
2022-10-21T05:51:26.329Z,4.30
2022-10-21T05:53:53.195Z,4.57
2022-10-21T05:56:19.929Z,4.53
2022-10-21T05:58:46.156Z,4.50
2022-10-21T06:01:12.381Z,4.35
2022-10-21T06:03:38.613Z,4.60
2022-10-21T06:06:05.643Z,4.32
2022-10-21T06:08:33.024Z,4.72
2022-10-21T06:11:04.152Z,4.07
2022-10-21T06:13:30.935Z,4.15
2022-10-21T06:15:57.766Z,4.22
2022-10-21T06:18:24.033Z,4.38
2022-10-21T06:20:50.394Z,4.90
2022-10-21T06:23:16.725Z,7.95
2022-10-21T06:25:43.862Z,4.80
2022-10-21T06:28:10.067Z,5.22
2022-10-21T06:30:36.320Z,4.35
2022-10-21T06:33:02.549Z,5.28
2022-10-21T06:35:28.742Z,6.18
2022-10-21T06:37:54.957Z,5.53
2022-10-21T06:40:21.150Z,5.60
2022-10-21T06:42:47.420Z,4.85
2022-10-21T06:45:13.651Z,5.50
2022-10-21T06:47:40.227Z,6.28
2022-10-21T06:50:06.899Z,4.53
2022-10-21T06:52:33.671Z,4.80
2022-10-21T06:54:59.987Z,5.60
2022-10-21T06:57:27.664Z,4.75
2022-10-21T06:59:53.882Z,7.97
2022-10-21T07:02:20.121Z,5.65
2022-10-21T07:04:48.987Z,5.00
2022-10-21T07:07:15.646Z,4.60
2022-10-21T07:09:41.936Z,4.70
2022-10-21T07:12:08.281Z,4.07
2022-10-21T07:14:34.599Z,4.20
2022-10-21T07:17:01.094Z,4.25
2022-10-21T07:19:27.366Z,4.20
2022-10-21T07:21:53.568Z,4.00
2022-10-21T07:24:22.586Z,4.10
2022-10-21T07:26:49.575Z,3.88
2022-10-21T07:29:15.865Z,4.05
2022-10-21T07:31:42.093Z,3.58
2022-10-21T07:34:09.306Z,4.32
2022-10-21T07:36:36.747Z,4.22
2022-10-21T07:39:05.410Z,3.85
2022-10-21T07:41:33.417Z,3.92
2022-10-21T07:43:59.792Z,4.40
2022-10-21T07:46:27.004Z,4.10
2022-10-21T07:48:53.198Z,4.30
2022-10-21T07:51:20.733Z,5.20
2022-10-21T07:53:48.816Z,4.00
2022-10-21T07:56:16.379Z,4.20
2022-10-21T07:58:43.556Z,4.10
2022-10-21T08:01:10.468Z,4.22
2022-10-21T08:03:37.117Z,4.43
2022-10-21T08:06:03.687Z,4.40
2022-10-21T08:08:30.799Z,4.75
2022-10-21T08:10:57.389Z,4.50
2022-10-21T08:13:23.710Z,4.88
2022-10-21T08:15:50.879Z,4.53
2022-10-21T08:18:17.254Z,4.70
2022-10-21T08:20:44.348Z,4.75
2022-10-21T08:23:11.969Z,4.85
2022-10-21T08:25:38.431Z,4.93
2022-10-21T08:28:06.203Z,4.90
2022-10-21T08:30:32.915Z,4.50
2022-10-21T08:32:59.440Z,4.32
2022-10-21T08:35:26.210Z,5.40
2022-10-21T08:37:52.459Z,5.25
2022-10-21T08:40:19.292Z,4.75
2022-10-21T08:42:46.103Z,5.00
2022-10-21T08:45:19.744Z,4.88
2022-10-21T08:47:49.230Z,5.40
2022-10-21T08:50:16.816Z,5.50
2022-10-21T08:52:48.887Z,5.20
2022-10-21T08:55:17.470Z,5.45
2022-10-21T08:57:43.713Z,5.57
2022-10-21T09:00:18.261Z,4.72
2022-10-21T09:02:47.307Z,5.28
2022-10-21T09:05:21.415Z,5.10
2022-10-21T09:07:56.827Z,4.72
2022-10-21T09:10:41.825Z,5.22
2022-10-21T09:13:11.023Z,5.30
2022-10-21T09:15:37.214Z,5.03
2022-10-21T09:18:22.135Z,5.15
2022-10-21T09:20:56.623Z,5.30
2022-10-21T09:23:29.977Z,5.53
2022-10-21T09:25:59.789Z,5.57
2022-10-21T09:28:26.867Z,5.30
2022-10-21T09:30:54.018Z,5.30
2022-10-21T09:33:25.298Z,4.72
2022-10-21T09:35:59.743Z,4.95
2022-10-21T09:38:28.737Z,5.10
2022-10-21T09:41:01.556Z,5.15
2022-10-21T09:43:27.767Z,4.45
2022-10-21T09:45:54.182Z,4.45
2022-10-21T09:48:24.969Z,4.80
2022-10-21T09:50:53.307Z,5.60
2022-10-21T09:53:26.612Z,5.18
2022-10-21T09:55:58.293Z,4.60
2022-10-21T10:00:50.998Z,4.70
2022-10-21T10:03:33.500Z,4.57
2022-10-21T10:06:00.157Z,4.47
2022-10-21T10:08:31.397Z,4.70
2022-10-21T10:11:03.800Z,4.65
2022-10-21T10:13:31.531Z,5.07
2022-10-21T10:16:18.491Z,4.95
2022-10-21T10:18:45.315Z,5.00
2022-10-21T10:21:15.636Z,5.25
2022-10-21T10:23:46.268Z,5.28
2022-10-21T10:26:21.220Z,4.78
2022-10-21T10:28:49.087Z,4.05
2022-10-21T10:31:22.450Z,4.00
2022-10-21T10:33:57.988Z,4.35
2022-10-21T10:36:27.395Z,4.07
2022-10-21T10:38:54.627Z,4.43
2022-10-21T10:41:21.326Z,4.32
2022-10-21T10:43:54.681Z,4.00
2022-10-21T10:46:20.839Z,3.95
2022-10-21T10:48:49.669Z,3.88
2022-10-21T10:51:29.136Z,3.67
2022-10-21T10:54:07.614Z,4.13
2022-10-21T10:56:45.760Z,3.92
2022-10-21T10:59:23.917Z,4.90
2022-10-21T11:02:02.186Z,3.88
2022-10-21T11:04:39.538Z,3.72
2022-10-21T11:07:21.330Z,3.40
2022-10-21T11:09:49.209Z,3.80
2022-10-21T11:12:20.208Z,3.55
2022-10-21T11:14:49.818Z,3.60
2022-10-21T11:17:19.761Z,3.95
2022-10-21T11:19:46.026Z,4.00
2022-10-21T11:22:14.459Z,3.88
2022-10-21T11:24:53.444Z,5.07
2022-10-21T11:27:32.399Z,4.95
2022-10-21T11:29:58.589Z,5.32
2022-10-21T11:32:35.937Z,5.53
2022-10-21T11:35:22.407Z,4.70
2022-10-21T11:38:07.286Z,5.43
2022-10-21T11:40:39.876Z,5.10
2022-10-21T11:43:29.345Z,5.18
2022-10-21T11:46:01.643Z,6.55
2022-10-21T11:48:41.684Z,5.63
2022-10-21T11:51:11.545Z,5.15
2022-10-21T11:53:51.065Z,5.47
2022-10-21T11:56:28.175Z,4.82
2022-10-21T11:59:13.171Z,4.70
2022-10-21T12:01:42.216Z,4.38
2022-10-21T12:04:18.464Z,4.43
2022-10-21T12:06:44.652Z,3.80
2022-10-21T12:09:32.509Z,3.97
2022-10-21T12:12:15.952Z,3.50
2022-10-21T12:14:45.574Z,3.40
2022-10-21T12:17:17.362Z,3.47
2022-10-21T12:19:47.338Z,3.00
2022-10-21T12:22:13.705Z,3.38
2022-10-21T12:24:58.030Z,2.85
2022-10-21T12:27:43.162Z,3.00
2022-10-21T12:30:16.067Z,3.20
2022-10-21T12:32:49.810Z,2.85
2022-10-21T12:35:21.180Z,2.70
2022-10-21T12:40:25.752Z,2.55
2022-10-21T12:43:28.558Z,2.75
2022-10-21T12:46:05.882Z,2.50
2022-10-21T12:48:34.122Z,2.00
2022-10-21T12:51:02.313Z,2.33
2022-10-21T12:53:35.619Z,2.03
2022-10-21T12:56:01.821Z,2.30
2022-10-21T12:58:37.672Z,2.00
2022-10-21T13:01:04.695Z,2.00
2022-10-21T13:03:46.328Z,1.80
2022-10-21T13:06:13.101Z,2.13
2022-10-21T13:08:39.342Z,2.00
2022-10-21T13:11:05.547Z,1.90
2022-10-21T13:13:35.809Z,1.70
2022-10-21T13:16:20.278Z,2.50
2022-10-21T13:19:03.344Z,2.05
2022-10-21T13:21:29.514Z,2.08
2022-10-21T13:23:56.804Z,2.35
2022-10-21T13:26:26.926Z,2.00
2022-10-21T13:29:01.663Z,2.15
2022-10-21T13:31:28.295Z,2.20
2022-10-21T13:33:55.215Z,2.20
2022-10-21T13:39:23.360Z,2.20
2022-10-21T13:41:56.676Z,1.80
2022-10-21T13:44:34.787Z,1.98
2022-10-21T13:47:19.205Z,1.77
2022-10-21T13:49:53.443Z,1.40
2022-10-21T13:52:19.746Z,1.38
2022-10-21T13:54:46.034Z,1.40
2022-10-21T13:57:15.891Z,1.30
2022-10-21T13:59:42.136Z,1.70
2022-10-21T14:02:22.011Z,1.30
2022-10-21T14:04:48.243Z,1.27
2022-10-21T14:07:17.805Z,1.38
2022-10-21T14:09:45.605Z,1.60
2022-10-21T14:12:21.464Z,1.40
2022-10-21T14:14:47.718Z,1.42
2022-10-21T14:17:18.147Z,1.27
2022-10-21T14:19:47.336Z,2.00
2022-10-21T14:22:18.157Z,1.10
2022-10-21T14:24:45.933Z,1.27
2022-10-21T14:27:16.956Z,1.20
2022-10-21T14:29:44.361Z,1.30
2022-10-21T14:32:13.334Z,1.13
2022-10-21T14:34:56.497Z,1.02
2022-10-21T14:37:23.181Z,0.98
2022-10-21T14:39:49.440Z,1.10
2022-10-21T14:42:20.162Z,0.80
2022-10-21T14:44:47.042Z,0.90
2022-10-21T14:47:21.636Z,1.35
2022-10-21T14:49:49.070Z,1.10
2022-10-21T14:52:35.289Z,1.10
2022-10-21T14:55:14.159Z,1.10
2022-10-21T14:57:53.545Z,1.00
2022-10-21T15:00:26.305Z,1.13
2022-10-21T15:02:56.449Z,1.25
2022-10-21T15:05:43.018Z,1.08
2022-10-21T15:08:22.480Z,1.10
2022-10-21T15:10:58.243Z,1.08
2022-10-21T15:13:25.365Z,0.95
2022-10-21T15:15:54.553Z,1.10
2022-10-21T15:18:25.534Z,1.10
2022-10-21T15:20:56.699Z,1.00
2022-10-21T15:23:25.295Z,1.17
2022-10-21T15:25:56.411Z,1.20
2022-10-21T15:28:23.264Z,1.13
2022-10-21T15:30:52.076Z,1.10
2022-10-21T15:33:18.270Z,1.50
2022-10-21T15:35:44.518Z,1.50
2022-10-21T15:38:10.733Z,1.08
2022-10-21T15:40:37.043Z,1.45
2022-10-21T15:43:03.534Z,1.20
2022-10-21T15:45:29.702Z,1.40
2022-10-21T15:47:55.916Z,1.40
2022-10-21T15:50:23.536Z,1.20
2022-10-21T15:52:49.815Z,1.10
2022-10-21T15:55:16.076Z,1.52
2022-10-21T15:57:42.801Z,1.52
2022-10-21T16:00:18.127Z,1.30
2022-10-21T16:02:44.981Z,2.00
2022-10-21T16:05:11.251Z,1.58
2022-10-21T16:07:37.509Z,1.63
2022-10-21T16:10:15.998Z,1.50
2022-10-21T16:12:42.305Z,1.50
2022-10-21T16:15:08.822Z,1.55
2022-10-21T16:17:35.179Z,1.65
2022-10-21T16:20:01.644Z,1.38
2022-10-21T16:22:28.079Z,1.67
2022-10-21T16:24:54.335Z,1.73
2022-10-21T16:27:36.846Z,1.42
2022-10-21T16:30:20.712Z,1.42
2022-10-21T16:32:47.304Z,1.40
2022-10-21T16:35:14.005Z,1.95
2022-10-21T16:37:40.284Z,2.40
2022-10-21T16:40:35.768Z,2.50
2022-10-21T16:43:01.971Z,2.17
2022-10-21T16:45:29.148Z,1.90
2022-10-21T16:47:56.901Z,2.10
2022-10-21T16:50:28.879Z,1.90
2022-10-21T16:52:55.248Z,2.20
2022-10-21T16:55:21.507Z,2.20
2022-10-21T16:57:47.872Z,2.05
2022-10-21T17:00:14.200Z,1.88
2022-10-21T17:02:41.091Z,2.33
2022-10-21T17:05:08.010Z,1.92
2022-10-21T17:07:34.616Z,2.33
2022-10-21T17:10:01.904Z,2.50
2022-10-21T17:12:28.160Z,2.60
2022-10-21T17:14:54.354Z,2.55
2022-10-21T17:17:22.171Z,3.10
2022-10-21T17:19:48.602Z,2.67
2022-10-21T17:22:16.911Z,2.33
2022-10-21T17:24:43.656Z,2.50
2022-10-21T17:27:10.021Z,2.30
2022-10-21T17:29:36.488Z,2.30
2022-10-21T17:32:03.286Z,2.60
2022-10-21T17:34:30.706Z,2.50
2022-10-21T17:36:57.046Z,2.70
2022-10-21T17:39:23.611Z,2.58
2022-10-21T17:41:49.946Z,2.55
2022-10-21T17:44:16.467Z,2.42
2022-10-21T17:46:42.721Z,2.45
2022-10-21T17:49:09.579Z,3.47
2022-10-21T17:51:35.827Z,4.03
2022-10-21T17:54:02.296Z,4.07
2022-10-21T17:56:28.519Z,3.30
2022-10-21T17:58:55.702Z,3.67
2022-10-21T18:01:23.133Z,3.28
2022-10-21T18:03:49.830Z,3.30
2022-10-21T18:06:16.235Z,2.97
2022-10-21T18:08:43.173Z,3.22
2022-10-21T18:11:10.910Z,3.13
2022-10-21T18:13:37.411Z,3.05
2022-10-21T18:16:05.100Z,3.80
2022-10-21T18:18:31.947Z,2.92
2022-10-21T18:21:02.119Z,2.95
2022-10-21T18:23:28.384Z,3.13
2022-10-21T18:25:54.676Z,3.40
2022-10-21T18:28:20.983Z,3.47
2022-10-21T18:30:47.238Z,3.28
2022-10-21T18:33:13.605Z,3.55
2022-10-21T18:35:39.855Z,4.50
2022-10-21T18:38:06.128Z,3.47
2022-10-21T18:40:33.485Z,3.15
2022-10-21T18:42:59.728Z,3.80
2022-10-21T18:45:25.994Z,4.40
2022-10-21T18:47:53.989Z,3.67
2022-10-21T18:50:20.479Z,4.00
2022-10-21T18:52:46.738Z,3.20
2022-10-21T18:55:13.302Z,3.47
2022-10-21T18:57:39.760Z,3.67
2022-10-21T19:00:06.563Z,3.60
2022-10-21T19:02:32.980Z,3.45
2022-10-21T19:05:01.990Z,3.65
2022-10-21T19:07:28.713Z,3.67
2022-10-21T19:09:54.966Z,3.70
2022-10-21T19:12:23.569Z,3.83
2022-10-21T19:14:50.139Z,3.97
2022-10-21T19:17:16.482Z,4.05
2022-10-21T19:19:42.695Z,3.80
2022-10-21T19:22:09.099Z,3.75
2022-10-21T19:24:35.877Z,4.22
2022-10-21T19:27:02.099Z,3.58
2022-10-21T19:29:28.368Z,4.03
2022-10-21T19:31:56.593Z,4.50
2022-10-21T19:34:26.170Z,3.47
2022-10-21T19:36:52.771Z,3.80
2022-10-21T19:39:19.138Z,4.07
2022-10-21T19:41:45.506Z,3.50
2022-10-21T19:44:11.721Z,3.53
2022-10-21T19:46:37.923Z,3.53
2022-10-21T19:49:05.668Z,3.20
2022-10-21T19:51:31.907Z,3.65
2022-10-21T19:53:58.222Z,3.55
2022-10-21T19:56:26.857Z,4.30
2022-10-21T19:58:55.141Z,3.33
2022-10-21T20:01:23.007Z,3.30
2022-10-21T20:03:49.839Z,3.30
2022-10-21T20:06:17.584Z,3.55
2022-10-21T20:08:43.946Z,3.20
2022-10-21T20:11:15.023Z,3.38
2022-10-21T20:13:41.622Z,3.03
2022-10-21T20:16:08.213Z,3.53
2022-10-21T20:18:34.800Z,3.63
2022-10-21T20:21:05.360Z,3.67
2022-10-21T20:23:31.591Z,3.47
2022-10-21T20:25:58.469Z,3.13
2022-10-21T20:28:25.780Z,3.20
2022-10-21T20:31:11.983Z,3.58
2022-10-21T20:33:39.480Z,3.63
2022-10-21T20:36:06.685Z,3.22
2022-10-21T20:38:33.203Z,3.92
2022-10-21T20:41:06.455Z,3.50
2022-10-21T20:43:34.231Z,3.30
2022-10-21T20:46:01.089Z,4.05
2022-10-21T20:48:27.700Z,3.67
2022-10-21T20:51:04.361Z,3.50
2022-10-21T20:53:31.779Z,3.60
2022-10-21T20:55:58.899Z,4.30
2022-10-21T20:58:25.233Z,3.90
2022-10-21T21:00:51.491Z,4.07
2022-10-21T21:03:18.154Z,3.47
2022-10-21T21:05:44.389Z,4.70
2022-10-21T21:08:10.666Z,4.15
2022-10-21T21:10:36.961Z,4.10
2022-10-21T21:13:03.540Z,4.35
2022-10-21T21:15:29.788Z,3.88
2022-10-21T21:17:56.174Z,3.20
2022-10-21T21:20:22.409Z,3.50
2022-10-21T21:22:48.592Z,3.17
2022-10-21T21:25:14.816Z,3.58
2022-10-21T21:27:41.024Z,3.70
2022-10-21T21:30:07.639Z,3.55
2022-10-21T21:32:33.864Z,4.30
2022-10-21T21:35:03.544Z,4.50
2022-10-21T21:37:32.303Z,4.30
2022-10-21T21:39:58.538Z,3.72
2022-10-21T21:42:24.739Z,4.15
2022-10-21T21:44:51.050Z,3.88
2022-10-21T21:47:17.252Z,3.80
2022-10-21T21:49:43.436Z,4.30
2022-10-21T21:52:09.641Z,3.65
2022-10-21T21:54:35.854Z,3.80
2022-10-21T21:57:28.884Z,4.20
2022-10-21T21:59:48.257Z,4.50
2022-10-21T22:02:14.494Z,4.20
2022-10-21T22:04:40.764Z,3.30
2022-10-21T22:07:07.004Z,4.35
2022-10-21T22:09:33.247Z,4.07
2022-10-21T22:11:59.494Z,4.03
2022-10-21T22:14:25.708Z,4.30
2022-10-21T22:16:52.091Z,3.90
2022-10-21T22:19:18.292Z,4.18
2022-10-21T22:21:44.531Z,3.53
2022-10-21T22:24:10.741Z,4.47
2022-10-21T22:26:36.962Z,4.47
2022-10-21T22:29:03.470Z,4.50
2022-10-21T22:31:30.873Z,4.47
2022-10-21T22:33:57.590Z,4.65
2022-10-21T22:36:23.839Z,4.30
2022-10-21T22:38:50.209Z,5.13
2022-10-21T22:41:16.393Z,5.20
2022-10-21T22:43:42.933Z,5.38
2022-10-21T22:46:21.467Z,5.15
2022-10-21T22:48:55.355Z,5.70
2022-10-21T22:51:21.581Z,5.05
2022-10-21T22:53:53.399Z,4.75
2022-10-21T22:56:22.506Z,5.15
2022-10-21T22:58:48.767Z,5.68
2022-10-21T23:01:14.966Z,4.97
2022-10-21T23:03:41.191Z,5.40
2022-10-21T23:06:07.548Z,5.20
2022-10-21T23:08:33.792Z,6.15
2022-10-21T23:11:00.047Z,4.90
2022-10-21T23:13:26.360Z,5.68
2022-10-21T23:15:52.590Z,5.88
2022-10-21T23:18:19.167Z,5.68
2022-10-21T23:20:45.414Z,4.95
2022-10-21T23:23:11.621Z,4.80
2022-10-21T23:25:37.903Z,5.25
2022-10-21T23:28:04.187Z,4.63
2022-10-21T23:30:30.390Z,5.00
2022-10-21T23:32:56.664Z,5.55
2022-10-21T23:35:23.685Z,4.80
2022-10-21T23:37:49.907Z,5.63
2022-10-21T23:40:16.211Z,5.10
2022-10-21T23:42:43.082Z,5.20
2022-10-21T23:45:11.148Z,5.05
2022-10-21T23:47:38.282Z,5.10
2022-10-21T23:50:05.344Z,5.03
2022-10-21T23:52:31.632Z,5.18
2022-10-21T23:54:57.874Z,5.53
2022-10-21T23:57:25.748Z,5.45
2022-10-21T23:59:51.988Z,5.03
